createdAt,value
2023-02-19T00:01:35.678Z,95214.69
2023-02-19T00:04:05.154Z,95214.91
2023-02-19T00:06:34.011Z,95207.81
2023-02-19T00:09:01.186Z,95208.56
2023-02-19T00:11:30.882Z,95199.97
2023-02-19T00:13:59.477Z,95198.38
2023-02-19T00:16:28.679Z,95199.44
2023-02-19T00:18:56.978Z,95194.72
2023-02-19T00:21:24.839Z,95191.03
2023-02-19T00:24:00.538Z,95197.75
2023-02-19T00:26:28.072Z,95190.22
2023-02-19T00:28:56.105Z,95190.50
2023-02-19T00:31:30.395Z,95184.34
2023-02-19T00:34:01.813Z,95191.31
2023-02-19T00:36:29.673Z,95197.22
2023-02-19T00:38:56.635Z,95185.31
2023-02-19T00:41:24.789Z,95193.63
2023-02-19T00:44:01.656Z,95181.03
2023-02-19T00:46:31.915Z,95183.06
2023-02-19T00:48:59.428Z,95185.75
2023-02-19T00:51:29.639Z,95175.59
2023-02-19T00:53:56.607Z,95178.09
2023-02-19T00:56:23.305Z,95172.44
2023-02-19T00:58:50.591Z,95179.88
2023-02-19T01:01:18.126Z,95165.91
2023-02-19T01:03:45.552Z,95172.84
2023-02-19T01:06:14.537Z,95175.47
2023-02-19T01:08:41.588Z,95172.72
2023-02-19T01:11:09.758Z,95170.22
2023-02-19T01:13:37.503Z,95162.03
2023-02-19T01:16:08.794Z,95172.38
2023-02-19T01:18:35.959Z,95158.63
2023-02-19T01:21:08.175Z,95165.94
2023-02-19T01:23:36.133Z,95170.25
2023-02-19T01:26:07.837Z,95159.03
2023-02-19T01:28:34.858Z,95166.25
2023-02-19T01:31:07.302Z,95158.06
2023-02-19T01:33:35.006Z,95161.53
2023-02-19T01:36:04.607Z,95161.31
2023-02-19T01:38:31.379Z,95161.31
2023-02-19T01:41:00.748Z,95160.75
2023-02-19T01:43:27.762Z,95153.63
2023-02-19T01:45:55.160Z,95140.84
2023-02-19T01:48:35.817Z,95145.16
2023-02-19T01:51:12.754Z,95133.88
2023-02-19T01:53:44.549Z,95151.31
2023-02-19T01:56:16.016Z,95133.53
2023-02-19T01:58:42.910Z,95138.03
2023-02-19T02:01:10.414Z,95134.38
2023-02-19T02:03:40.223Z,95135.75
2023-02-19T02:06:07.337Z,95142.41
2023-02-19T02:08:53.463Z,95135.22
2023-02-19T02:11:20.763Z,95131.03
2023-02-19T02:13:47.886Z,95133.53
2023-02-19T02:16:40.362Z,95134.88
2023-02-19T02:19:28.157Z,95125.78
2023-02-19T02:22:39.080Z,95128.28
2023-02-19T02:25:26.443Z,95104.06
2023-02-19T02:28:07.971Z,95090.25
2023-02-19T02:30:49.000Z,95096.31
2023-02-19T02:33:27.520Z,95086.06
2023-02-19T02:36:17.488Z,95096.97
2023-02-19T02:38:46.164Z,95086.56
2023-02-19T02:41:15.468Z,95086.66
2023-02-19T02:43:42.177Z,95079.97
2023-02-19T02:46:15.253Z,95068.97
2023-02-19T02:49:04.135Z,95065.63
2023-02-19T02:51:38.791Z,95055.91
2023-02-19T02:54:26.744Z,95061.03
2023-02-19T02:56:55.166Z,95064.44
2023-02-19T02:59:25.277Z,95049.84
2023-02-19T03:02:12.381Z,95051.53
2023-02-19T03:05:19.430Z,95047.19
2023-02-19T03:07:48.430Z,95046.13
2023-02-19T03:10:19.506Z,95052.19
2023-02-19T03:13:04.863Z,95060.03
2023-02-19T03:15:55.797Z,95054.97
2023-02-19T03:18:42.255Z,95051.22
2023-02-19T03:21:10.245Z,95065.09
2023-02-19T03:23:56.131Z,95065.50
2023-02-19T03:26:25.468Z,95066.06
2023-02-19T03:29:11.952Z,95068.91
2023-02-19T03:31:40.446Z,95082.56
2023-02-19T03:34:11.702Z,95074.94
2023-02-19T03:36:46.646Z,95101.22
2023-02-19T03:39:17.463Z,95093.50
2023-02-19T03:41:47.010Z,95094.34
2023-02-19T03:44:30.782Z,95090.94
2023-02-19T03:47:04.673Z,95091.72
2023-02-19T03:49:40.443Z,95086.94
2023-02-19T03:52:16.609Z,95087.28
2023-02-19T03:55:02.801Z,95087.31
2023-02-19T03:57:44.267Z,95083.91
2023-02-19T04:00:17.210Z,95093.91
2023-02-19T04:02:52.721Z,95100.13
2023-02-19T04:05:22.904Z,95092.69
2023-02-19T04:07:53.261Z,95094.91
2023-02-19T04:10:21.043Z,95101.94
2023-02-19T04:12:58.078Z,95073.69
2023-02-19T04:15:30.066Z,95065.19
2023-02-19T04:17:59.726Z,95053.44
2023-02-19T04:20:30.119Z,95054.69
2023-02-19T04:22:57.735Z,95051.53
2023-02-19T04:25:27.208Z,95042.75
2023-02-19T04:27:53.900Z,95047.09
2023-02-19T04:30:21.891Z,95058.06
2023-02-19T04:32:48.625Z,95052.34
2023-02-19T04:35:15.231Z,95057.25
2023-02-19T04:37:41.853Z,95058.63
2023-02-19T04:40:09.491Z,95089.34
2023-02-19T04:42:36.053Z,95079.16
2023-02-19T04:45:02.650Z,95083.28
2023-02-19T04:47:29.243Z,95075.66
2023-02-19T04:49:55.851Z,95092.41
2023-02-19T04:52:22.457Z,95091.97
2023-02-19T04:54:49.192Z,95083.94
2023-02-19T04:57:15.776Z,95080.25
2023-02-19T04:59:42.672Z,95085.19
2023-02-19T05:02:09.295Z,95082.19
2023-02-19T05:04:35.868Z,95079.41
2023-02-19T05:07:02.437Z,95087.97
2023-02-19T05:09:29.100Z,95084.47
2023-02-19T05:11:55.646Z,95077.38
2023-02-19T05:14:22.297Z,95076.88
2023-02-19T05:16:48.917Z,95076.81
2023-02-19T05:19:15.622Z,95080.97
2023-02-19T05:21:42.171Z,95079.44
2023-02-19T05:24:09.053Z,95078.72
2023-02-19T05:26:36.127Z,95096.72
2023-02-19T05:29:02.933Z,95090.69
2023-02-19T05:31:29.546Z,95095.84
2023-02-19T05:33:56.633Z,95105.47
2023-02-19T05:36:23.914Z,95104.47
2023-02-19T05:38:55.861Z,95101.97
2023-02-19T05:41:31.600Z,95097.06
2023-02-19T05:43:58.562Z,95103.13
2023-02-19T05:46:27.792Z,95105.56
2023-02-19T05:48:54.517Z,95107.63
2023-02-19T05:51:23.710Z,95118.09
2023-02-19T05:53:50.934Z,95107.00
2023-02-19T05:56:26.401Z,95112.28
2023-02-19T05:58:53.849Z,95125.41
2023-02-19T06:01:22.290Z,95128.91
2023-02-19T06:03:48.942Z,95135.59
2023-02-19T06:06:17.921Z,95136.63
2023-02-19T06:08:45.222Z,95143.66
2023-02-19T06:11:12.154Z,95133.06
2023-02-19T06:13:39.030Z,95140.19
2023-02-19T06:16:07.276Z,95139.53
2023-02-19T06:18:33.901Z,95142.00
2023-02-19T06:21:02.139Z,95147.94
2023-02-19T06:23:29.893Z,95156.09
2023-02-19T06:26:06.532Z,95158.06
2023-02-19T06:28:33.165Z,95167.72
2023-02-19T06:30:59.681Z,95166.38
2023-02-19T06:33:27.857Z,95171.50
2023-02-19T06:35:54.783Z,95170.22
2023-02-19T06:38:22.112Z,95175.91
2023-02-19T06:40:48.770Z,95178.53
2023-02-19T06:43:15.365Z,95180.09
2023-02-19T06:45:41.915Z,95179.34
2023-02-19T06:48:08.562Z,95187.66
2023-02-19T06:50:35.110Z,95175.72
2023-02-19T06:53:01.715Z,95180.81
2023-02-19T06:55:28.260Z,95183.03
2023-02-19T06:57:54.822Z,95193.31
2023-02-19T07:00:21.565Z,95189.47
2023-02-19T07:02:48.215Z,95175.75
2023-02-19T07:05:14.802Z,95184.75
2023-02-19T07:07:41.325Z,95186.47
2023-02-19T07:10:08.118Z,95194.91
2023-02-19T07:12:34.702Z,95205.88
2023-02-19T07:15:01.227Z,95207.03
2023-02-19T07:17:27.824Z,95204.78
2023-02-19T07:19:54.524Z,95212.63
2023-02-19T07:22:21.273Z,95219.56
2023-02-19T07:24:48.066Z,95223.34
2023-02-19T07:27:14.653Z,95229.50
2023-02-19T07:29:41.203Z,95238.06
2023-02-19T07:32:07.839Z,95232.78
2023-02-19T07:34:34.426Z,95237.75
2023-02-19T07:37:01.081Z,95235.91
2023-02-19T07:39:27.687Z,95246.47
2023-02-19T07:41:54.239Z,95240.50
2023-02-19T07:44:20.832Z,95243.44
2023-02-19T07:46:47.377Z,95241.44
2023-02-19T07:49:13.941Z,95250.19
2023-02-19T07:51:40.539Z,95237.34
2023-02-19T07:54:08.152Z,95255.84
2023-02-19T07:56:34.692Z,95251.19
2023-02-19T07:59:01.442Z,95259.03
2023-02-19T08:01:46.289Z,95258.03
2023-02-19T08:04:14.491Z,95261.78
2023-02-19T08:06:41.694Z,95266.72
2023-02-19T08:09:09.003Z,95262.81
2023-02-19T08:11:54.071Z,95261.22
2023-02-19T08:14:24.604Z,95265.44
2023-02-19T08:16:52.060Z,95274.00
2023-02-19T08:19:19.526Z,95280.25
2023-02-19T08:21:46.210Z,95275.81
2023-02-19T08:24:12.777Z,95288.75
2023-02-19T08:26:39.530Z,95275.66
2023-02-19T08:29:06.551Z,95284.03
2023-02-19T08:31:34.314Z,95280.47
2023-02-19T08:34:00.942Z,95291.03
2023-02-19T08:36:27.530Z,95285.84
2023-02-19T08:38:54.233Z,95280.25
2023-02-19T08:41:21.239Z,95278.78
2023-02-19T08:43:47.918Z,95286.41
2023-02-19T08:46:15.120Z,95288.47
2023-02-19T08:48:41.682Z,95280.97
2023-02-19T08:51:11.744Z,95289.72
2023-02-19T08:53:40.435Z,95293.69
2023-02-19T08:56:12.423Z,95300.28
2023-02-19T08:58:39.737Z,95295.78
2023-02-19T09:01:15.355Z,95305.53
2023-02-19T09:03:42.555Z,95317.63
2023-02-19T09:06:14.813Z,95327.00
2023-02-19T09:08:41.532Z,95326.41
2023-02-19T09:11:08.182Z,95327.16
2023-02-19T09:13:34.732Z,95336.38
2023-02-19T09:16:03.774Z,95342.31
2023-02-19T09:18:30.545Z,95350.78
2023-02-19T09:21:00.580Z,95350.53
2023-02-19T09:23:27.273Z,95357.88
2023-02-19T09:26:00.013Z,95350.50
2023-02-19T09:28:28.078Z,95370.63
2023-02-19T09:30:54.818Z,95360.31
2023-02-19T09:33:21.428Z,95357.88
2023-02-19T09:35:48.038Z,95352.94
2023-02-19T09:38:14.629Z,95365.47
2023-02-19T09:40:41.498Z,95362.13
2023-02-19T09:43:11.941Z,95360.78
2023-02-19T09:45:40.105Z,95364.97
2023-02-19T09:48:07.091Z,95361.31
2023-02-19T09:50:41.176Z,95360.25
2023-02-19T09:53:27.236Z,95355.69
2023-02-19T09:55:53.992Z,95361.56
2023-02-19T09:58:36.222Z,95372.66
2023-02-19T10:01:05.971Z,95369.09
2023-02-19T10:03:39.217Z,95368.00
2023-02-19T10:06:11.530Z,95379.38
2023-02-19T10:08:40.365Z,95378.78
2023-02-19T10:11:07.412Z,95377.84
2023-02-19T10:13:48.167Z,95383.13
2023-02-19T10:16:25.340Z,95372.16
2023-02-19T10:18:52.722Z,95382.16
2023-02-19T10:21:23.881Z,95386.75
2023-02-19T10:23:57.574Z,95393.31
2023-02-19T10:26:24.568Z,95386.81
2023-02-19T10:28:51.223Z,95394.50
2023-02-19T10:31:21.923Z,95395.81
2023-02-19T10:33:56.211Z,95405.38
2023-02-19T10:36:30.490Z,95396.81
2023-02-19T10:38:59.942Z,95400.16
2023-02-19T10:41:27.871Z,95397.72
2023-02-19T10:44:00.747Z,95388.75
2023-02-19T10:46:32.248Z,95390.06
2023-02-19T10:49:20.447Z,95399.75
2023-02-19T10:51:47.958Z,95384.31
2023-02-19T10:54:20.836Z,95397.09
2023-02-19T10:56:47.537Z,95388.78
2023-02-19T10:59:27.340Z,95385.22
2023-02-19T11:01:57.422Z,95382.91
2023-02-19T11:04:26.112Z,95378.81
2023-02-19T11:06:53.230Z,95374.72
2023-02-19T11:09:25.234Z,95361.47
2023-02-19T11:11:54.418Z,95362.06
2023-02-19T11:14:24.196Z,95357.34
2023-02-19T11:16:55.063Z,95361.22
2023-02-19T11:19:31.230Z,95361.00
2023-02-19T11:22:00.524Z,95374.47
2023-02-19T11:24:34.941Z,95372.16
2023-02-19T11:27:06.676Z,95372.09
2023-02-19T11:29:37.158Z,95379.50
2023-02-19T11:32:22.526Z,95373.06
2023-02-19T11:34:49.156Z,95368.38
2023-02-19T11:37:23.733Z,95365.28
2023-02-19T11:39:51.858Z,95355.19
2023-02-19T11:42:29.040Z,95352.31
2023-02-19T11:45:11.035Z,95348.34
2023-02-19T11:48:02.546Z,95339.75
2023-02-19T11:50:58.504Z,95349.75
2023-02-19T11:53:27.220Z,95357.91
2023-02-19T11:56:23.726Z,95358.81
2023-02-19T11:59:00.869Z,95346.91
2023-02-19T12:01:46.061Z,95356.00
2023-02-19T12:04:46.539Z,95352.09
2023-02-19T12:07:31.489Z,95349.59
2023-02-19T12:10:59.852Z,95353.41
2023-02-19T12:14:14.461Z,95345.25
2023-02-19T12:16:52.684Z,95366.63
2023-02-19T12:19:34.528Z,95360.25
2023-02-19T12:22:27.222Z,95366.03
2023-02-19T12:25:02.713Z,95380.50
2023-02-19T12:28:10.889Z,95367.13
2023-02-19T12:31:11.411Z,95366.59
2023-02-19T12:33:50.382Z,95366.94
2023-02-19T12:36:55.563Z,95360.72
2023-02-19T12:39:45.868Z,95377.41
2023-02-19T12:43:03.519Z,95387.38
2023-02-19T12:45:54.863Z,95387.00
2023-02-19T12:48:47.419Z,95398.84
2023-02-19T12:51:37.296Z,95393.59
2023-02-19T12:54:15.575Z,95391.34
2023-02-19T12:57:11.638Z,95405.06
2023-02-19T12:59:42.054Z,95414.00
2023-02-19T13:02:36.427Z,95405.09
2023-02-19T13:05:06.837Z,95402.25
2023-02-19T13:07:44.653Z,95401.47
2023-02-19T13:10:11.270Z,95397.09
2023-02-19T13:12:43.382Z,95406.22
2023-02-19T13:15:15.475Z,95401.47
2023-02-19T13:17:54.056Z,95396.22
2023-02-19T13:20:29.756Z,95406.44
2023-02-19T13:23:33.648Z,95408.16
2023-02-19T13:26:21.676Z,95407.94
2023-02-19T13:29:16.232Z,95409.13
2023-02-19T13:32:04.061Z,95406.19
2023-02-19T13:34:51.853Z,95411.00
2023-02-19T13:37:19.405Z,95407.53
2023-02-19T13:39:53.774Z,95408.38
2023-02-19T13:42:31.168Z,95405.28
2023-02-19T13:45:06.708Z,95410.59
2023-02-19T13:47:50.865Z,95409.44
2023-02-19T13:50:37.600Z,95401.81
2023-02-19T13:53:45.219Z,95404.50
2023-02-19T13:56:30.139Z,95407.69
2023-02-19T13:58:58.213Z,95404.88
2023-02-19T14:01:49.738Z,95406.50
2023-02-19T14:04:40.084Z,95408.22
2023-02-19T14:07:06.644Z,95402.25
2023-02-19T14:09:36.269Z,95391.47
2023-02-19T14:12:17.859Z,95388.81
2023-02-19T14:14:51.674Z,95395.25
2023-02-19T14:17:36.162Z,95403.88
2023-02-19T14:20:05.054Z,95409.28
2023-02-19T14:22:53.113Z,95426.22
2023-02-19T14:25:31.974Z,95431.72
2023-02-19T14:28:03.035Z,95422.47
2023-02-19T14:30:32.066Z,95420.94
2023-02-19T14:33:10.189Z,95433.66
2023-02-19T14:35:43.833Z,95428.47
2023-02-19T14:38:28.429Z,95424.28
2023-02-19T14:40:55.929Z,95408.28
2023-02-19T14:43:25.139Z,95421.06
2023-02-19T14:45:56.757Z,95414.94
2023-02-19T14:48:28.960Z,95414.06
2023-02-19T14:51:02.259Z,95421.91
2023-02-19T14:53:30.958Z,95414.91
2023-02-19T14:55:59.486Z,95412.47
2023-02-19T14:58:31.722Z,95399.31
2023-02-19T15:00:58.412Z,95408.94
2023-02-19T15:03:32.635Z,95413.69
2023-02-19T15:06:12.708Z,95412.50
2023-02-19T15:08:43.792Z,95410.63
2023-02-19T15:11:17.462Z,95408.91
2023-02-19T15:13:50.957Z,95418.91
2023-02-19T15:16:21.299Z,95428.00
2023-02-19T15:18:48.983Z,95424.78
2023-02-19T15:21:30.510Z,95429.38
2023-02-19T15:24:00.318Z,95430.38
2023-02-19T15:26:40.496Z,95433.66
2023-02-19T15:29:15.521Z,95449.69
2023-02-19T15:31:51.345Z,95449.41
2023-02-19T15:34:29.606Z,95453.72
2023-02-19T15:37:07.884Z,95448.75
2023-02-19T15:39:36.027Z,95453.25
2023-02-19T15:42:05.487Z,95459.31
2023-02-19T15:44:32.138Z,95456.88
2023-02-19T15:47:03.108Z,95463.19
2023-02-19T15:49:40.266Z,95470.22
2023-02-19T15:52:16.560Z,95471.97
2023-02-19T15:54:55.682Z,95467.00
2023-02-19T15:57:28.096Z,95450.31
2023-02-19T16:00:02.048Z,95462.00
2023-02-19T16:02:28.953Z,95471.31
2023-02-19T16:04:56.233Z,95452.28
2023-02-19T16:07:28.571Z,95452.72
2023-02-19T16:10:24.072Z,95471.88
2023-02-19T16:12:58.817Z,95460.13
2023-02-19T16:15:26.998Z,95468.72
2023-02-19T16:17:53.927Z,95463.19
2023-02-19T16:20:24.586Z,95473.25
2023-02-19T16:22:52.262Z,95469.75
2023-02-19T16:25:27.906Z,95468.41
2023-02-19T16:27:55.349Z,95483.94
2023-02-19T16:30:33.852Z,95477.22
2023-02-19T16:33:22.682Z,95482.84
2023-02-19T16:35:52.290Z,95486.13
2023-02-19T16:38:20.692Z,95494.03
2023-02-19T16:40:54.183Z,95492.50
2023-02-19T16:43:25.354Z,95487.63
2023-02-19T16:45:52.031Z,95492.13
2023-02-19T16:48:21.061Z,95491.50
2023-02-19T16:50:47.709Z,95490.84
2023-02-19T16:53:24.719Z,95495.66
2023-02-19T16:55:52.222Z,95507.00
2023-02-19T16:58:19.165Z,95510.78
2023-02-19T17:00:46.092Z,95521.25
2023-02-19T17:03:17.705Z,95523.03
2023-02-19T17:05:44.913Z,95529.44
2023-02-19T17:08:39.395Z,95524.16
2023-02-19T17:11:07.782Z,95541.75
2023-02-19T17:13:34.362Z,95534.72
2023-02-19T17:16:01.326Z,95543.00
2023-02-19T17:18:28.015Z,95550.88
2023-02-19T17:20:58.877Z,95555.88
2023-02-19T17:23:25.483Z,95554.94
2023-02-19T17:25:52.091Z,95551.72
2023-02-19T17:28:19.033Z,95549.69
2023-02-19T17:30:45.541Z,95537.16
2023-02-19T17:33:12.129Z,95552.81
2023-02-19T17:35:38.823Z,95551.97
2023-02-19T17:38:09.505Z,95565.72
2023-02-19T17:40:37.411Z,95576.19
2023-02-19T17:43:05.028Z,95577.47
2023-02-19T17:45:32.073Z,95575.03
2023-02-19T17:47:59.418Z,95582.09
2023-02-19T17:50:31.319Z,95588.88
2023-02-19T17:52:58.714Z,95594.00
2023-02-19T17:55:25.521Z,95595.31
2023-02-19T17:57:53.180Z,95615.78
2023-02-19T18:00:23.192Z,95615.34
2023-02-19T18:02:50.237Z,95614.31
2023-02-19T18:05:17.490Z,95604.44
2023-02-19T18:07:44.985Z,95594.38
2023-02-19T18:10:11.998Z,95592.63
2023-02-19T18:12:39.623Z,95597.31
2023-02-19T18:15:07.808Z,95606.63
2023-02-19T18:17:35.447Z,95611.28
2023-02-19T18:20:04.673Z,95611.31
2023-02-19T18:22:32.205Z,95617.28
2023-02-19T18:24:59.040Z,95610.78
2023-02-19T18:27:25.652Z,95621.69
2023-02-19T18:29:53.863Z,95627.00
2023-02-19T18:32:22.556Z,95628.50
2023-02-19T18:34:54.351Z,95646.78
2023-02-19T18:37:21.864Z,95640.97
2023-02-19T18:39:48.573Z,95636.72
2023-02-19T18:42:15.613Z,95645.72
2023-02-19T18:44:42.760Z,95654.00
2023-02-19T18:47:09.773Z,95663.47
2023-02-19T18:49:36.452Z,95656.16
2023-02-19T18:52:03.550Z,95667.53
2023-02-19T18:54:31.393Z,95673.31
2023-02-19T18:57:00.874Z,95673.34
2023-02-19T18:59:27.607Z,95671.88
2023-02-19T19:01:54.259Z,95669.69
2023-02-19T19:04:20.843Z,95676.22
2023-02-19T19:06:48.931Z,95682.91
2023-02-19T19:09:15.719Z,95673.91
2023-02-19T19:11:44.370Z,95675.22
2023-02-19T19:14:10.970Z,95674.94
2023-02-19T19:16:37.876Z,95674.66
2023-02-19T19:19:04.448Z,95663.03
2023-02-19T19:21:31.090Z,95659.38
2023-02-19T19:23:57.758Z,95652.03
2023-02-19T19:26:30.293Z,95663.31
2023-02-19T19:28:57.057Z,95669.59
2023-02-19T19:31:25.012Z,95660.72
2023-02-19T19:33:52.077Z,95668.72
2023-02-19T19:36:20.908Z,95669.44
2023-02-19T19:38:47.965Z,95674.91
2023-02-19T19:41:16.243Z,95676.09
2023-02-19T19:43:42.848Z,95680.00
2023-02-19T19:46:10.534Z,95671.75
2023-02-19T19:48:39.615Z,95676.69
2023-02-19T19:51:06.456Z,95671.16
2023-02-19T19:53:33.869Z,95671.00
2023-02-19T19:56:01.397Z,95664.94
2023-02-19T19:58:28.277Z,95666.22
2023-02-19T20:00:55.054Z,95671.03
2023-02-19T20:03:22.309Z,95678.59
2023-02-19T20:05:51.988Z,95681.47
2023-02-19T20:08:19.202Z,95671.31
2023-02-19T20:10:46.359Z,95671.63
2023-02-19T20:13:17.377Z,95670.28
2023-02-19T20:15:44.043Z,95679.72
2023-02-19T20:18:11.093Z,95677.09
2023-02-19T20:20:37.945Z,95675.38
2023-02-19T20:23:04.695Z,95680.16
2023-02-19T20:25:31.413Z,95687.72
2023-02-19T20:27:58.343Z,95676.53
2023-02-19T20:30:25.725Z,95687.31
2023-02-19T20:32:53.548Z,95684.09
2023-02-19T20:35:20.470Z,95675.22
2023-02-19T20:37:50.120Z,95679.31
2023-02-19T20:40:19.921Z,95677.41
2023-02-19T20:42:49.699Z,95683.66
2023-02-19T20:45:20.362Z,95685.56
2023-02-19T20:47:50.226Z,95688.59
2023-02-19T20:50:26.014Z,95677.72
2023-02-19T20:52:56.507Z,95680.03
2023-02-19T20:55:26.167Z,95671.19
2023-02-19T20:57:54.162Z,95672.94
2023-02-19T21:00:21.215Z,95678.47
2023-02-19T21:02:47.932Z,95677.44
2023-02-19T21:05:16.092Z,95692.09
2023-02-19T21:07:42.696Z,95682.06
2023-02-19T21:10:09.851Z,95681.94
2023-02-19T21:12:36.548Z,95686.56
2023-02-19T21:15:04.512Z,95684.94
2023-02-19T21:17:31.654Z,95682.78
2023-02-19T21:19:58.255Z,95679.44
2023-02-19T21:22:26.820Z,95683.97
2023-02-19T21:24:53.752Z,95688.75
2023-02-19T21:27:20.947Z,95697.91
2023-02-19T21:29:47.950Z,95700.53
2023-02-19T21:32:14.852Z,95700.81
2023-02-19T21:34:42.467Z,95706.31
2023-02-19T21:37:09.137Z,95704.88
2023-02-19T21:39:35.818Z,95701.81
2023-02-19T21:42:03.840Z,95698.47
2023-02-19T21:44:30.424Z,95692.81
2023-02-19T21:46:57.036Z,95693.84
2023-02-19T21:49:24.203Z,95697.59
2023-02-19T21:51:50.832Z,95694.28
2023-02-19T21:54:21.611Z,95690.19
2023-02-19T21:56:48.759Z,95685.69
2023-02-19T21:59:15.538Z,95679.19
2023-02-19T22:01:43.368Z,95677.00
2023-02-19T22:04:14.161Z,95675.97
2023-02-19T22:06:41.059Z,95677.28
2023-02-19T22:09:08.777Z,95679.47
2023-02-19T22:11:35.618Z,95691.22
2023-02-19T22:14:03.039Z,95694.72
2023-02-19T22:16:29.761Z,95686.28
2023-02-19T22:18:58.376Z,95694.44
2023-02-19T22:21:27.572Z,95691.22
2023-02-19T22:23:54.868Z,95696.03
2023-02-19T22:26:27.652Z,95703.69
2023-02-19T22:28:54.737Z,95696.31
2023-02-19T22:31:23.979Z,95688.75
2023-02-19T22:33:50.845Z,95697.47
2023-02-19T22:36:23.157Z,95692.56
2023-02-19T22:38:50.103Z,95691.38
2023-02-19T22:41:17.890Z,95692.69
2023-02-19T22:43:44.790Z,95680.47
2023-02-19T22:46:17.387Z,95689.03
2023-02-19T22:48:44.004Z,95676.13
2023-02-19T22:51:16.605Z,95687.75
2023-02-19T22:53:48.252Z,95686.28
2023-02-19T22:56:16.527Z,95686.59
2023-02-19T22:58:43.505Z,95687.88
2023-02-19T23:01:11.734Z,95689.22
2023-02-19T23:03:58.844Z,95690.06
2023-02-19T23:06:28.183Z,95693.72
2023-02-19T23:08:56.703Z,95698.66
2023-02-19T23:11:25.959Z,95718.56
2023-02-19T23:13:53.366Z,95713.94
2023-02-19T23:16:20.168Z,95718.84
2023-02-19T23:18:46.817Z,95717.38
2023-02-19T23:21:13.861Z,95715.19
2023-02-19T23:23:42.426Z,95718.19
2023-02-19T23:26:09.889Z,95720.53
2023-02-19T23:28:36.536Z,95726.75
2023-02-19T23:31:03.396Z,95726.38
2023-02-19T23:33:30.000Z,95725.72
2023-02-19T23:35:56.662Z,95732.69
2023-02-19T23:38:23.340Z,95723.00
2023-02-19T23:40:50.031Z,95729.69
2023-02-19T23:43:16.629Z,95729.56
2023-02-19T23:45:43.254Z,95736.81
2023-02-19T23:48:10.083Z,95733.19
2023-02-19T23:50:36.615Z,95722.03
2023-02-19T23:53:06.222Z,95714.72
2023-02-19T23:55:32.783Z,95719.38
2023-02-19T23:57:59.346Z,95725.22
